Terminal Aerodrome Forecast
Issued by NWS Cleveland, OH

Home | Current Version | Previous Version | Graphics & Text | Print | Product List | Glossary On
Versions: 1 2 3 4 5 6 7 8 9 10 11 12 13 14 15 16 17 18 19 20 21 22
567
FTUS41 KCLE 241720
TAFCAK
TAF
KCAK 241720Z 2418/2518 20020G30KT P6SM SCT045 BKN200
     FM250000 19012KT P6SM SCT045 BKN200
     FM250400 19014KT P6SM -SHRA VCTS SCT045CB BKN150
      TEMPO 2506/2509 26020G40KT 3SM TSRA BKN020CB
     FM251100 23012KT P6SM OVC040
     FM251300 24015G25KT P6SM OVC025=

USA.gov is the U.S. government's official web portal to all federal, state and local government web resources and services.